Time;durP1;ratioP1;P1;durP2;ratioP2;P2;SDS_P1;SDS_P2;PMS_P1;PMS_P2;Temp;Humidity;BMP_temperature;BMP_pressure;BME280_temperature;BME280_humidity;BME280_pressure;Samples;Min_cycle;Max_cycle;Signal;HPM_P1;HPM_P2
2022/09/01 00:00:34;;;;;;;4.23;3.70;;;;;;;20.96;52.11;98280.84;8486056;28;20224;-73
2022/09/01 00:04:38;;;;;;;3.73;3.10;;;;;;;20.94;51.97;98281.94;8485909;28;20563;-73
2022/09/01 00:08:44;;;;;;;5.43;3.10;;;;;;;20.85;52.47;98281.72;8485952;28;20295;-73
2022/09/01 00:12:46;;;;;;;5.60;3.40;;;;;;;20.92;51.89;98286.47;8485886;28;20225;-72
2022/09/01 00:16:49;;;;;;;4.23;3.23;;;;;;;20.91;52.40;98283.03;8485061;28;20226;-72
2022/09/01 00:20:57;;;;;;;5.47;3.50;;;;;;;20.81;52.15;98275.03;8485566;28;20292;-72
2022/09/01 00:25:02;;;;;;;4.90;3.20;;;;;;;20.84;52.09;98271.31;8485518;28;20257;-72
2022/09/01 00:29:05;;;;;;;3.83;3.40;;;;;;;20.83;52.82;98274.94;8485397;28;20231;-72
2022/09/01 00:33:08;;;;;;;3.87;3.30;;;;;;;20.71;53.00;98274.09;8485137;28;20327;-72
2022/09/01 00:37:11;;;;;;;4.70;3.47;;;;;;;20.78;53.35;98274.47;8484618;28;20398;-72
2022/09/01 00:41:17;;;;;;;4.60;3.67;;;;;;;20.70;53.53;98277.72;8485089;28;20222;-73
2022/09/01 00:45:21;;;;;;;6.57;4.03;;;;;;;20.69;53.64;98270.75;8484783;28;20240;-73
2022/09/01 00:49:29;;;;;;;4.80;3.53;;;;;;;20.63;53.96;98268.63;8484618;28;20331;-73
2022/09/01 00:53:37;;;;;;;4.57;3.43;;;;;;;20.55;54.51;98274.50;8484743;28;20229;-72
2022/09/01 00:57:42;;;;;;;4.43;3.60;;;;;;;20.53;54.87;98265.06;8484494;28;20224;-73
2022/09/01 01:01:45;;;;;;;6.87;3.83;;;;;;;20.53;54.70;98270.31;8484343;28;20233;-72
2022/09/01 01:10:10;;;;;;;5.70;3.83;;;;;;;20.47;54.70;98264.59;9323658;22;20235;-72
2022/09/01 01:14:16;;;;;;;6.10;4.07;;;;;;;20.46;54.08;98264.69;8317523;28;20236;-71
2022/09/01 01:18:19;;;;;;;4.60;3.80;;;;;;;20.45;54.15;98265.69;8317488;28;20248;-71
2022/09/01 01:26:56;;;;;;;4.43;3.60;;;;;;;20.42;54.07;98264.09;8317013;28;20518;-71
2022/09/01 01:31:00;;;;;;;6.93;3.50;;;;;;;20.37;54.39;98261.03;8317523;28;20421;-72
2022/09/01 01:35:05;;;;;;;4.00;3.60;;;;;;;20.38;54.37;98261.84;8317152;28;20304;-71
2022/09/01 01:39:11;;;;;;;4.63;3.60;;;;;;;20.33;55.02;98259.56;8316658;28;20236;-72
2022/09/01 01:43:20;;;;;;;4.47;3.23;;;;;;;20.27;55.18;98262.69;8316751;28;20518;-71
2022/09/01 01:47:23;;;;;;;5.57;4.00;;;;;;;20.19;55.52;98255.41;8316719;28;20288;-71
2022/09/01 01:51:27;;;;;;;5.23;3.50;;;;;;;20.18;55.60;98255.53;8316715;28;20242;-71
2022/09/01 01:55:30;;;;;;;4.53;3.80;;;;;;;20.10;55.70;98246.50;8316580;28;20230;-71
2022/09/01 01:59:34;;;;;;;4.40;3.57;;;;;;;20.17;55.23;98256.50;8316481;28;20245;-71
2022/09/01 02:03:38;;;;;;;4.60;3.60;;;;;;;20.10;55.46;98257.00;8316101;28;20247;-71
2022/09/01 02:07:41;;;;;;;3.90;3.60;;;;;;;19.98;55.32;98247.44;8316224;28;20229;-71
2022/09/01 02:11:44;;;;;;;5.30;4.10;;;;;;;19.96;55.03;98246.72;8315867;28;20236;-71
2022/09/01 02:15:52;;;;;;;4.83;3.93;;;;;;;19.96;54.89;98246.72;8315550;28;20231;-71
2022/09/01 02:19:57;;;;;;;5.37;3.90;;;;;;;19.92;55.09;98246.13;8315522;28;20245;-71
2022/09/01 02:24:02;;;;;;;6.67;4.10;;;;;;;19.95;54.77;98245.03;8315688;28;20262;-71
2022/09/01 02:28:08;;;;;;;7.60;4.00;;;;;;;19.95;54.97;98238.94;8315330;28;20232;-71
2022/09/01 02:32:12;;;;;;;4.83;4.03;;;;;;;19.94;54.41;98230.25;8315822;28;20232;-71
2022/09/01 02:36:18;;;;;;;4.20;3.80;;;;;;;19.89;54.57;98235.00;8315339;28;20228;-71
2022/09/01 02:40:21;;;;;;;6.17;3.93;;;;;;;19.89;54.74;98232.38;8315256;28;20239;-72
2022/09/01 02:44:27;;;;;;;5.57;4.20;;;;;;;19.82;54.73;98229.41;8315020;28;20233;-71
2022/09/01 02:48:36;;;;;;;4.27;3.90;;;;;;;19.85;54.29;98223.06;8315123;28;20228;-71
2022/09/01 02:52:40;;;;;;;8.17;4.33;;;;;;;19.77;54.57;98217.59;8314937;28;20326;-71
2022/09/01 02:56:46;;;;;;;6.67;4.00;;;;;;;19.67;54.63;98213.00;8314480;28;20225;-71
2022/09/01 03:00:52;;;;;;;5.83;3.90;;;;;;;19.71;54.74;98209.19;8314450;28;20245;-71
2022/09/01 03:04:57;;;;;;;4.63;3.97;;;;;;;19.63;54.80;98215.97;8314561;28;20230;-71
2022/09/01 03:09:00;;;;;;;5.63;4.40;;;;;;;19.62;54.64;98216.97;8314337;28;20262;-71
2022/09/01 03:13:07;;;;;;;8.07;4.27;;;;;;;19.63;54.55;98216.84;8314683;28;20240;-71
2022/09/01 03:17:10;;;;;;;6.30;4.00;;;;;;;19.53;55.10;98214.09;8314577;28;20254;-71
2022/09/01 03:21:15;;;;;;;4.57;3.93;;;;;;;19.51;54.87;98215.16;8314416;28;20235;-71
2022/09/01 03:25:19;;;;;;;4.60;4.20;;;;;;;19.45;55.39;98216.47;8314337;28;20551;-71
2022/09/01 03:29:22;;;;;;;5.10;4.57;;;;;;;19.46;55.14;98212.88;8314299;28;20237;-71
2022/09/01 03:33:26;;;;;;;4.80;3.83;;;;;;;19.37;55.10;98210.13;8314280;28;20238;-71
2022/09/01 03:37:31;;;;;;;4.87;4.13;;;;;;;19.32;55.42;98203.44;8314000;28;20236;-71
2022/09/01 03:41:36;;;;;;;6.03;4.20;;;;;;;19.30;55.48;98215.00;8314240;28;20231;-71
2022/09/01 03:45:40;;;;;;;4.27;3.87;;;;;;;19.30;55.45;98205.31;8313985;28;20239;-72
2022/09/01 03:49:44;;;;;;;5.47;4.27;;;;;;;19.34;55.03;98206.78;8314182;28;20234;-71
2022/09/01 03:53:49;;;;;;;6.53;4.17;;;;;;;19.28;55.36;98203.78;8313984;28;20230;-72
2022/09/01 03:57:52;;;;;;;5.33;4.03;;;;;;;19.28;55.59;98202.00;8313605;28;20235;-71
2022/09/01 04:01:56;;;;;;;4.50;4.10;;;;;;;19.27;55.64;98210.84;8313843;28;20233;-71
2022/09/01 04:06:00;;;;;;;6.73;4.03;;;;;;;19.13;55.78;98211.03;8313610;28;20238;-71
2022/09/01 04:10:10;;;;;;;5.60;3.90;;;;;;;19.16;55.31;98212.59;8315773;28;20243;-72
2022/09/01 04:14:13;;;;;;;7.47;3.70;;;;;;;19.06;56.08;98210.66;8319778;28;20235;-72
2022/09/01 04:18:29;;;;;;;6.40;3.73;;;;;;;19.03;55.66;98210.88;8319513;28;20238;-71
2022/09/01 04:22:34;;;;;;;4.90;3.60;;;;;;;19.09;55.43;98218.28;8319527;28;20235;-72
2022/09/01 04:26:39;;;;;;;7.33;3.60;;;;;;;19.12;55.55;98217.25;8319344;28;20241;-72
2022/09/01 04:30:47;;;;;;;3.80;3.47;;;;;;;19.06;55.22;98209.84;8319133;28;20251;-72
2022/09/01 04:34:54;;;;;;;5.20;3.50;;;;;;;18.90;55.76;98210.97;8317978;28;20521;-72
2022/09/01 04:38:59;;;;;;;5.30;4.03;;;;;;;19.00;55.49;98220.78;8319095;28;20250;-73
2022/09/01 04:43:06;;;;;;;5.63;4.00;;;;;;;18.93;55.76;98220.41;8318936;28;20514;-73
2022/09/01 04:47:13;;;;;;;5.47;4.23;;;;;;;18.90;55.85;98218.00;8318617;28;20241;-73
2022/09/01 04:51:19;;;;;;;5.80;3.67;;;;;;;18.89;56.15;98226.84;8318782;28;20229;-73
2022/09/01 04:55:23;;;;;;;7.20;3.80;;;;;;;18.91;55.90;98227.56;8318730;28;20408;-73
2022/09/01 04:59:29;;;;;;;6.07;3.57;;;;;;;18.83;56.05;98233.38;8318380;28;20234;-73
2022/09/01 05:03:32;;;;;;;4.87;4.00;;;;;;;18.82;56.51;98236.13;8684112;22;20231;-75
2022/09/01 05:07:36;;;;;;;11.27;4.43;;;;;;;18.86;56.08;98229.69;8317992;28;20242;-77
2022/09/01 05:11:44;;;;;;;5.23;3.90;;;;;;;18.90;56.17;98228.50;8317918;28;20255;-75
2022/09/01 05:15:49;;;;;;;5.17;3.60;;;;;;;18.92;56.22;98231.84;8317260;28;20233;-73
2022/09/01 05:19:54;;;;;;;4.47;3.40;;;;;;;18.99;55.93;98238.31;8315948;28;20635;-75
2022/09/01 05:23:59;;;;;;;5.27;3.90;;;;;;;19.04;56.05;98236.19;8317385;28;20231;-75
2022/09/01 05:28:02;;;;;;;6.67;3.53;;;;;;;19.06;55.66;98246.59;8317334;28;20242;-75
2022/09/01 05:32:08;;;;;;;7.27;3.47;;;;;;;19.15;55.22;98240.63;8317042;28;20233;-77
2022/09/01 05:36:13;;;;;;;6.00;3.33;;;;;;;19.26;55.47;98243.28;8317117;28;20236;-76
2022/09/01 05:40:16;;;;;;;8.80;4.10;;;;;;;19.36;55.30;98240.78;8317007;28;20233;-76
2022/09/01 05:44:21;;;;;;;6.50;3.40;;;;;;;19.54;54.55;98241.19;8316638;28;20530;-76
2022/09/01 05:48:29;;;;;;;7.47;3.83;;;;;;;19.58;54.48;98241.78;8316637;28;20552;-75
2022/09/01 05:52:33;;;;;;;5.60;3.87;;;;;;;19.79;53.97;98250.66;8316768;28;20318;-76
2022/09/01 05:56:40;;;;;;;7.80;3.43;;;;;;;20.03;53.42;98245.28;8316399;28;20238;-76
2022/09/01 06:00:48;;;;;;;6.37;3.60;;;;;;;20.23;52.95;98254.22;8316265;28;20231;-77
2022/09/01 06:04:55;;;;;;;3.70;3.23;;;;;;;20.35;52.28;98257.66;8315352;28;20553;-80
2022/09/01 06:08:58;;;;;;;6.07;3.10;;;;;;;20.47;52.60;98253.22;8316123;28;20236;-76
2022/09/01 06:13:01;;;;;;;7.57;3.67;;;;;;;20.55;51.78;98261.34;8315705;28;20252;-76
2022/09/01 06:17:05;;;;;;;4.87;2.90;;;;;;;20.53;51.78;98255.34;8315783;28;20242;-76
2022/09/01 06:21:13;;;;;;;4.83;2.97;;;;;;;20.70;50.86;98259.28;8316010;28;20232;-76
2022/09/01 06:25:17;;;;;;;4.87;3.10;;;;;;;20.61;50.78;98262.66;8315462;28;20240;-77
2022/09/01 06:29:20;;;;;;;4.80;2.80;;;;;;;20.88;50.96;98257.78;8315413;28;20227;-77
2022/09/01 06:33:24;;;;;;;4.27;2.87;;;;;;;21.09;50.16;98263.09;8314755;28;20228;-77
2022/09/01 06:37:29;;;;;;;4.90;2.83;;;;;;;21.14;49.92;98267.13;8315282;28;20539;-77
2022/09/01 06:41:32;;;;;;;6.23;3.07;;;;;;;21.19;49.64;98262.28;8315322;28;20231;-77
2022/09/01 06:45:40;;;;;;;7.23;2.70;;;;;;;21.35;49.22;98267.13;8314720;28;20234;-76
2022/09/01 06:49:43;;;;;;;4.23;3.00;;;;;;;21.34;48.99;98255.75;8314976;28;20430;-77
2022/09/01 06:53:55;;;;;;;7.33;2.97;;;;;;;21.39;48.84;98260.63;8314596;28;20327;-77
2022/09/01 06:57:58;;;;;;;8.70;3.10;;;;;;;21.39;48.09;98263.28;8314597;28;20252;-77
2022/09/01 07:02:21;;;;;;;6.07;2.90;;;;;;;21.60;48.67;98258.03;8315075;28;20235;-81
2022/09/01 07:06:30;;;;;;;16.80;3.50;;;;;;;21.72;50.47;98266.69;8314781;28;20242;-85
2022/09/01 07:10:54;;;;;;;12.03;3.67;;;;;;;22.08;50.44;98264.47;8314784;28;20422;-85
2022/09/01 07:15:18;;;;;;;6.93;3.03;;;;;;;21.78;47.21;98268.78;8314979;28;20278;-88
2022/09/01 07:19:41;;;;;;;6.00;2.90;;;;;;;21.65;47.23;98272.47;8315234;28;20234;-89
2022/09/01 07:23:51;;;;;;;8.30;2.80;;;;;;;21.84;47.90;98279.66;8314534;28;20220;-80
2022/09/01 07:28:15;;;;;;;6.20;2.77;;;;;;;21.92;47.14;98268.44;8314816;28;20519;-82
2022/09/01 07:32:19;;;;;;;4.63;2.57;;;;;;;21.23;47.04;98279.53;8314356;28;20231;-82
2022/09/01 07:36:43;;;;;;;6.20;2.60;;;;;;;21.75;47.54;98275.16;8314180;28;20235;-82
2022/09/01 07:41:06;;;;;;;6.13;2.90;;;;;;;21.82;46.91;98280.75;8314159;28;20232;-84
2022/09/01 07:45:32;;;;;;;6.13;2.30;;;;;;;22.23;45.95;98278.97;8319175;28;20237;-82
2022/09/01 07:49:36;;;;;;;6.47;2.97;;;;;;;22.40;46.12;98282.78;8320879;28;20229;-84
2022/09/01 07:54:01;;;;;;;5.83;3.00;;;;;;;21.89;46.60;98284.50;8320379;28;20238;-86
2022/09/01 07:58:04;;;;;;;6.47;2.90;;;;;;;22.42;45.91;98283.47;8321147;28;20242;-84
2022/09/01 08:02:09;;;;;;;4.13;2.50;;;;;;;22.70;45.94;98289.78;8321010;28;20717;-84
2022/09/01 08:06:15;;;;;;;7.83;2.53;;;;;;;22.81;45.02;98292.31;8324029;28;20228;-82
2022/09/01 08:10:18;;;;;;;7.77;3.20;;;;;;;22.94;43.66;98284.13;8319807;28;20228;-81
2022/09/01 08:14:22;;;;;;;6.70;3.07;;;;;;;23.05;44.81;98283.16;8321276;28;20225;-86
2022/09/01 08:18:27;;;;;;;14.73;2.87;;;;;;;23.65;43.10;98280.31;8321196;28;20233;-81
2022/09/01 08:22:30;;;;;;;5.10;2.33;;;;;;;23.48;42.04;98289.81;8319019;28;20240;-83
2022/09/01 08:26:36;;;;;;;7.70;2.37;;;;;;;23.79;41.79;98279.03;8318678;28;20233;-81
2022/09/01 08:30:40;;;;;;;7.00;2.10;;;;;;;24.46;41.11;98279.69;8318464;28;20235;-80
2022/09/01 08:34:44;;;;;;;3.47;1.80;;;;;;;24.27;40.38;98282.47;8318086;28;20228;-82
2022/09/01 08:38:47;;;;;;;3.47;1.73;;;;;;;24.93;39.58;98287.50;8317837;28;20230;-78
2022/09/01 08:42:57;;;;;;;2.30;1.77;;;;;;;24.96;38.84;98289.03;8317789;28;20226;-79
2022/09/01 08:47:03;;;;;;;4.47;2.37;;;;;;;24.77;38.92;98290.84;8317608;28;20540;-80
2022/09/01 08:51:20;;;;;;;5.57;1.97;;;;;;;25.64;37.81;98293.72;8317266;28;20344;-79
2022/09/01 08:55:28;;;;;;;3.17;1.77;;;;;;;26.18;37.36;98282.94;8317009;28;20526;-79
2022/09/01 08:59:31;;;;;;;6.73;2.03;;;;;;;26.29;35.32;98290.63;8317979;28;20610;-80
2022/09/01 09:03:40;;;;;;;4.57;1.70;;;;;;;27.25;34.31;98288.53;8317064;28;20226;-79
2022/09/01 09:07:59;;;;;;;6.60;1.93;;;;;;;26.98;32.90;98286.97;8317131;28;20240;-81
2022/09/01 09:12:26;;;;;;;4.40;1.50;;;;;;;27.20;33.98;98294.28;8316791;28;20250;-83
2022/09/01 09:16:33;;;;;;;5.00;2.00;;;;;;;25.63;34.72;98299.19;8316958;28;20226;-80
2022/09/01 09:20:37;;;;;;;4.47;1.87;;;;;;;26.99;34.50;98291.31;8317114;28;20498;-77
2022/09/01 09:24:49;;;;;;;3.40;1.60;;;;;;;25.80;34.17;98295.66;8316410;28;20229;-82
2022/09/01 09:28:53;;;;;;;3.60;1.70;;;;;;;25.07;34.68;98294.06;8315872;28;20311;-84
2022/09/01 09:32:59;;;;;;;2.43;1.63;;;;;;;25.08;34.20;98292.28;8316358;28;20517;-84
2022/09/01 09:37:24;;;;;;;3.33;1.50;;;;;;;25.12;34.46;98283.03;8316378;28;20399;-81
2022/09/01 09:41:29;;;;;;;2.43;1.77;;;;;;;25.53;34.36;98289.53;8316504;28;20243;-82
2022/09/01 09:45:34;;;;;;;6.77;1.60;;;;;;;26.02;33.80;98278.38;8315899;28;20308;-82
2022/09/01 09:49:37;;;;;;;3.30;1.63;;;;;;;26.52;32.45;98284.69;8315691;28;20544;-81
2022/09/01 09:53:50;;;;;;;3.77;1.50;;;;;;;26.75;32.48;98277.00;8315672;28;20243;-83
2022/09/01 09:57:56;;;;;;;2.13;1.57;;;;;;;26.92;31.16;98278.69;8315672;28;20235;-79
2022/09/01 10:02:00;;;;;;;4.70;1.60;;;;;;;25.43;32.95;98283.47;8315970;28;20230;-84
2022/09/01 10:06:04;;;;;;;3.00;1.30;;;;;;;25.12;32.88;98280.38;8314842;28;20524;-83
2022/09/01 10:10:37;;;;;;;1.20;1.10;;;;;;;25.02;32.57;98269.88;8314921;28;20236;-80
2022/09/01 10:14:46;;;;;;;4.00;1.80;;;;;;;25.88;32.05;98268.34;8315744;28;20279;-82
2022/09/01 10:18:59;;;;;;;5.87;1.60;;;;;;;26.83;31.54;98260.25;8315747;28;20271;-81
2022/09/01 10:23:02;;;;;;;3.87;1.50;;;;;;;25.45;32.50;98268.22;8315262;28;20430;-80
2022/09/01 10:27:09;;;;;;;3.07;1.43;;;;;;;25.69;32.26;98269.41;8315735;28;20261;-79
2022/09/01 10:31:18;;;;;;;1.87;1.50;;;;;;;25.93;32.14;98268.72;8316009;28;20337;-77
2022/09/01 10:35:23;;;;;;;2.03;1.40;;;;;;;26.38;31.47;98262.25;8315502;28;20303;-78
2022/09/01 10:39:26;;;;;;;1.87;1.37;;;;;;;27.26;30.80;98258.28;8315612;28;20421;-77
2022/09/01 10:43:41;;;;;;;3.93;1.50;;;;;;;26.39;31.11;98255.13;8315348;28;20237;-79
2022/09/01 10:47:46;;;;;;;2.40;1.47;;;;;;;26.57;31.49;98260.31;8316032;28;20527;-79
2022/09/01 10:51:50;;;;;;;2.27;1.60;;;;;;;27.62;28.94;98244.59;8315111;28;20356;-77
2022/09/01 10:56:03;;;;;;;1.87;1.40;;;;;;;26.64;30.53;98253.41;8315414;28;20246;-78
2022/09/01 11:00:50;;;;;;;2.60;1.23;;;;;;;26.28;29.70;98251.78;8314758;28;20302;-78
2022/09/01 11:05:16;;;;;;;3.67;1.47;;;;;;;25.67;31.86;98251.00;8314307;28;20235;-78
2022/09/01 11:09:23;;;;;;;3.27;1.60;;;;;;;25.00;33.37;98253.31;8314759;28;20235;-77
2022/09/01 11:13:34;;;;;;;3.97;1.80;;;;;;;25.32;33.10;98255.41;8315215;28;20247;-78
2022/09/01 11:17:39;;;;;;;4.37;1.70;;;;;;;25.61;33.32;98250.75;8318873;28;20231;-79
2022/09/01 11:21:43;;;;;;;2.33;1.50;;;;;;;26.27;32.15;98249.28;8327320;28;20518;-83
2022/09/01 11:25:47;;;;;;;4.57;1.37;;;;;;;27.21;29.18;98255.28;8321998;28;20249;-82
2022/09/01 11:30:10;;;;;;;4.20;1.70;;;;;;;26.52;30.74;98251.03;8321997;28;20237;-81
2022/09/01 11:34:16;;;;;;;1.57;1.47;;;;;;;26.45;31.37;98242.03;8321346;28;20224;-82
2022/09/01 11:38:21;;;;;;;2.43;1.30;;;;;;;26.22;31.71;98239.16;8321506;28;20228;-79
2022/09/01 11:42:27;;;;;;;2.37;1.70;;;;;;;25.01;33.15;98248.84;8320818;28;20232;-80
2022/09/01 11:46:33;;;;;;;5.23;2.00;;;;;;;25.44;33.21;98242.72;8320926;28;20239;-79
2022/09/01 11:50:37;;;;;;;3.33;1.70;;;;;;;25.03;33.13;98241.56;8320536;28;20227;-80
2022/09/01 11:54:45;;;;;;;1.53;1.43;;;;;;;25.39;33.63;98236.22;8320738;28;20266;-78
2022/09/01 11:58:48;;;;;;;1.70;1.60;;;;;;;24.87;34.95;98236.97;8319819;28;20238;-77
2022/09/01 12:02:53;;;;;;;2.07;1.70;;;;;;;24.66;34.55;98238.09;8320015;28;20243;-77
2022/09/01 12:06:57;;;;;;;2.07;1.87;;;;;;;24.43;35.02;98236.81;8319713;28;20239;-77
2022/09/01 12:11:06;;;;;;;4.40;2.03;;;;;;;24.31;35.46;98241.50;8320152;28;20242;-78
2022/09/01 12:15:17;;;;;;;3.93;1.70;;;;;;;24.25;35.91;98237.63;8319737;28;20235;-78
2022/09/01 12:19:24;;;;;;;4.03;1.80;;;;;;;24.08;36.03;98230.47;8319793;28;20229;-78
2022/09/01 12:23:29;;;;;;;4.07;1.90;;;;;;;23.98;35.80;98223.44;8319404;28;20525;-80
2022/09/01 12:27:35;;;;;;;2.43;1.50;;;;;;;24.12;36.69;98219.47;8319217;28;20233;-80
2022/09/01 12:31:41;;;;;;;3.27;1.80;;;;;;;24.30;35.74;98226.63;8317990;28;20245;-77
2022/09/01 12:35:45;;;;;;;3.97;2.03;;;;;;;24.08;36.26;98226.03;8319242;28;20238;-80
2022/09/01 12:39:49;;;;;;;2.00;1.80;;;;;;;23.95;35.93;98223.75;8318813;28;20525;-79
2022/09/01 12:43:53;;;;;;;3.90;1.90;;;;;;;24.02;36.75;98225.78;8318627;28;20248;-79
2022/09/01 12:47:57;;;;;;;2.90;1.80;;;;;;;24.25;37.23;98218.28;8318950;28;20443;-83
2022/09/01 12:52:16;;;;;;;3.27;1.80;;;;;;;24.30;36.71;98216.03;8318512;28;20235;-78
2022/09/01 12:56:29;;;;;;;6.67;2.40;;;;;;;24.23;36.97;98214.94;8318506;28;20508;-79
2022/09/01 13:00:35;;;;;;;6.77;2.10;;;;;;;24.02;37.45;98208.09;8318343;28;20239;-77
2022/09/01 13:04:40;;;;;;;3.07;2.07;;;;;;;23.91;36.94;98213.59;8318231;28;20233;-79
2022/09/01 13:08:43;;;;;;;3.47;2.03;;;;;;;24.31;36.48;98215.88;8318750;28;20235;-77
2022/09/01 13:12:48;;;;;;;2.47;1.73;;;;;;;24.41;36.49;98210.53;8319295;28;20225;-79
2022/09/01 13:16:54;;;;;;;7.23;2.07;;;;;;;24.26;36.19;98202.25;8318177;28;20235;-77
2022/09/01 13:20:58;;;;;;;1.93;1.80;;;;;;;24.78;36.14;98204.28;8318070;28;20236;-77
2022/09/01 13:25:01;;;;;;;5.87;2.07;;;;;;;24.50;36.41;98206.13;8317768;28;20234;-77
2022/09/01 13:29:04;;;;;;;3.83;1.77;;;;;;;24.29;36.64;98199.28;8317529;28;20241;-78
2022/09/01 13:33:11;;;;;;;3.70;2.20;;;;;;;24.40;36.37;98207.03;8317430;28;20226;-80
2022/09/01 13:37:22;;;;;;;5.20;2.03;;;;;;;24.75;35.07;98199.25;8317509;28;20245;-83
2022/09/01 13:41:25;;;;;;;2.53;1.80;;;;;;;24.65;35.84;98198.53;8317957;28;20225;-86
2022/09/01 13:45:28;;;;;;;4.50;2.30;;;;;;;24.72;34.71;98196.94;8317847;28;20415;-83
2022/09/01 13:49:33;;;;;;;2.57;1.60;;;;;;;24.78;35.40;98199.78;8317289;28;20296;-83
2022/09/01 13:53:46;;;;;;;2.27;1.87;;;;;;;25.08;34.63;98194.25;8317249;28;20307;-84
2022/09/01 13:57:49;;;;;;;4.27;1.80;;;;;;;25.31;34.32;98186.66;8316678;28;20543;-81
2022/09/01 14:01:57;;;;;;;2.07;1.87;;;;;;;25.53;35.51;98182.63;8316892;28;20516;-84
2022/09/01 14:06:01;;;;;;;4.50;1.80;;;;;;;24.98;32.99;98195.16;8316945;28;20268;-81
2022/09/01 14:10:06;;;;;;;2.83;1.80;;;;;;;25.15;31.61;98190.81;8316996;28;20235;-82
2022/09/01 14:14:08;;;;;;;1.93;1.40;;;;;;;25.77;30.56;98186.38;8316428;28;20315;-81
2022/09/01 14:18:12;;;;;;;3.60;1.53;;;;;;;26.65;31.00;98175.38;8316657;28;20415;-79
2022/09/01 14:22:17;;;;;;;3.23;1.50;;;;;;;26.79;29.68;98181.84;8316196;28;20224;-82
2022/09/01 14:26:20;;;;;;;1.73;1.57;;;;;;;26.79;30.15;98168.56;8316223;28;20232;-82
2022/09/01 14:30:30;;;;;;;2.43;1.43;;;;;;;26.91;29.45;98169.91;8315905;28;20239;-83
2022/09/01 14:34:34;;;;;;;3.03;2.00;;;;;;;27.01;29.20;98167.06;8316382;28;20228;-82
2022/09/01 14:38:38;;;;;;;2.73;1.70;;;;;;;26.92;29.23;98166.22;8315874;28;20442;-84
2022/09/01 14:42:42;;;;;;;3.30;1.40;;;;;;;27.33;29.10;98154.75;8315692;28;20225;-84
2022/09/01 14:46:45;;;;;;;2.83;1.50;;;;;;;27.46;29.30;98155.06;8315650;28;20387;-83
2022/09/01 14:50:49;;;;;;;2.03;1.50;;;;;;;27.10;27.40;98150.94;8315296;28;20235;-83
2022/09/01 14:54:54;;;;;;;2.33;1.30;;;;;;;26.57;26.55;98157.59;8315283;28;20227;-84
2022/09/01 14:58:59;;;;;;;1.90;1.50;;;;;;;26.27;27.28;98148.41;8315276;28;20233;-81
2022/09/01 15:03:02;;;;;;;1.73;1.60;;;;;;;26.82;27.70;98144.34;8315112;28;20429;-81
2022/09/01 15:07:05;;;;;;;1.83;1.40;;;;;;;26.92;27.51;98137.00;8315129;28;20244;-80
2022/09/01 15:11:10;;;;;;;2.50;1.30;;;;;;;26.92;26.94;98142.31;8314825;28;20253;-81
2022/09/01 15:15:13;;;;;;;2.90;1.50;;;;;;;26.98;27.15;98132.84;8315031;28;20408;-80
2022/09/01 15:19:16;;;;;;;2.47;2.27;;;;;;;27.04;27.35;98134.84;8314872;28;20233;-81
2022/09/01 15:23:21;;;;;;;2.57;2.20;;;;;;;26.45;29.72;98149.13;8314707;28;20238;-81
2022/09/01 15:27:25;;;;;;;3.17;1.80;;;;;;;25.98;32.04;98138.25;8314959;28;20241;-82
2022/09/01 15:31:31;;;;;;;5.07;2.00;;;;;;;25.82;32.71;98134.53;8315127;28;20237;-82
2022/09/01 15:35:35;;;;;;;6.27;2.13;;;;;;;25.78;32.24;98138.50;8316876;28;20233;-80
2022/09/01 15:39:37;;;;;;;6.63;2.33;;;;;;;25.13;33.34;98142.47;8315577;28;20236;-85
2022/09/01 15:43:42;;;;;;;8.00;2.13;;;;;;;24.95;33.67;98137.19;8314658;28;20232;-85
2022/09/01 15:47:47;;;;;;;2.53;1.80;;;;;;;24.88;33.57;98132.66;8314432;28;20240;-81
2022/09/01 15:51:49;;;;;;;3.03;1.80;;;;;;;24.31;33.61;98148.88;8313693;28;20228;-81
2022/09/01 15:55:52;;;;;;;4.53;2.10;;;;;;;24.25;33.84;98146.84;8314113;28;20229;-81
2022/09/01 15:59:57;;;;;;;4.90;1.80;;;;;;;24.49;34.11;98135.66;8314114;28;20236;-83
2022/09/01 16:04:00;;;;;;;2.30;1.87;;;;;;;24.16;34.83;98141.47;8314829;28;20241;-81
2022/09/01 16:08:08;;;;;;;20.33;14.57;;;;;;;23.94;34.01;98141.88;8332056;28;20424;-81
2022/09/01 16:12:10;;;;;;;54.77;41.00;;;;;;;23.83;33.33;98142.09;8333069;28;20229;-89
2022/09/01 16:16:33;;;;;;;40.00;27.40;;;;;;;24.07;32.85;98145.00;8328933;28;20238;-84
2022/09/01 16:20:48;;;;;;;15.90;10.80;;;;;;;23.91;33.79;98137.75;8320124;28;20260;-86
2022/09/01 16:24:53;;;;;;;17.87;12.40;;;;;;;24.11;33.53;98134.97;8319678;28;20520;-87
2022/09/01 16:28:57;;;;;;;16.80;13.30;;;;;;;24.17;33.48;98139.66;8319616;28;20237;-84
2022/09/01 16:33:18;;;;;;;6.37;3.70;;;;;;;24.10;33.94;98130.66;8319851;28;20263;-87
2022/09/01 16:37:41;;;;;;;8.80;6.60;;;;;;;23.92;34.28;98134.09;8319596;28;20237;-85
2022/09/01 16:41:50;;;;;;;3.87;3.00;;;;;;;24.04;34.10;98136.53;8319454;28;20524;-84
2022/09/01 16:46:00;;;;;;;9.00;6.27;;;;;;;24.02;34.04;98131.38;8318997;28;20226;-79
2022/09/01 16:50:11;;;;;;;7.57;4.60;;;;;;;23.82;34.24;98135.97;8319329;28;20241;-91
2022/09/01 16:54:19;;;;;;;6.10;3.50;;;;;;;23.61;34.27;98129.09;8319160;28;20236;-81
2022/09/01 16:58:27;;;;;;;622.57;497.93;;;;;;;23.76;34.70;98132.09;8318675;28;20235;-80
2022/09/01 17:02:37;;;;;;;63.30;48.63;;;;;;;23.72;34.16;98125.44;8318485;28;20233;-79
2022/09/01 17:06:49;;;;;;;23.57;16.97;;;;;;;23.76;34.61;98129.44;8318413;28;20438;-80
2022/09/01 17:10:56;;;;;;;20.33;18.13;;;;;;;23.55;34.86;98127.03;8317936;28;20229;-80
2022/09/01 17:15:07;;;;;;;35.07;28.97;;;;;;;23.90;34.65;98124.66;8318078;28;20245;-80
2022/09/01 17:19:16;;;;;;;27.27;18.13;;;;;;;24.02;34.45;98122.63;8317645;28;20268;-81
2022/09/01 17:23:27;;;;;;;8.23;7.07;;;;;;;24.06;34.40;98129.28;8318198;28;20234;-82
2022/09/01 17:27:33;;;;;;;5.83;2.63;;;;;;;23.87;34.58;98130.22;8318013;28;20235;-81
2022/09/01 17:31:45;;;;;;;6.23;2.30;;;;;;;23.84;34.59;98136.66;8318135;28;20230;-78
2022/09/01 17:35:58;;;;;;;6.20;4.00;;;;;;;23.78;34.78;98143.38;8317584;28;20226;-78
2022/09/01 17:40:12;;;;;;;5.40;2.53;;;;;;;23.91;34.82;98147.47;8317003;28;20237;-79
2022/09/01 17:44:21;;;;;;;159.40;118.27;;;;;;;23.94;35.43;98141.88;8317416;28;20290;-78
2022/09/01 17:48:34;;;;;;;9.47;6.73;;;;;;;23.97;35.68;98146.88;8317637;28;20227;-80
2022/09/01 17:52:52;;;;;;;16.73;3.20;;;;;;;24.04;35.79;98149.75;8317253;28;20236;-78
2022/09/01 17:56:59;;;;;;;5.53;2.20;;;;;;;23.93;36.54;98149.00;8316838;28;20230;-79
2022/09/01 18:01:08;;;;;;;18.60;3.77;;;;;;;23.82;36.66;98151.84;8316671;28;20233;-78
2022/09/01 18:05:12;;;;;;;4.27;2.77;;;;;;;23.83;36.24;98147.38;8317107;28;20291;-79
2022/09/01 18:09:18;;;;;;;6.30;2.07;;;;;;;23.76;36.52;98157.66;8317627;28;20233;-78
2022/09/01 18:13:26;;;;;;;7.57;4.60;;;;;;;23.85;37.01;98159.47;8317237;28;20226;-77
2022/09/01 18:17:53;;;;;;;1999.90;999.90;;;;;;;23.91;37.57;98160.69;8315423;28;20233;-77
2022/09/01 18:21:59;;;;;;;446.33;400.33;;;;;;;23.81;36.93;98160.75;8315671;28;20237;-77
2022/09/01 18:26:08;;;;;;;532.77;471.40;;;;;;;23.96;36.72;98159.25;8316222;28;20422;-78
2022/09/01 18:30:13;;;;;;;54.43;20.67;;;;;;;23.95;36.65;98167.34;8315359;28;20229;-78
2022/09/01 18:34:30;;;;;;;5.80;4.27;;;;;;;24.00;35.79;98163.28;8316283;28;20238;-79
2022/09/01 18:38:40;;;;;;;6.93;2.70;;;;;;;23.85;36.39;98172.69;8316060;28;20240;-79
2022/09/01 18:42:49;;;;;;;19.47;4.53;;;;;;;23.80;37.32;98172.31;8315656;28;20234;-79
2022/09/01 18:46:57;;;;;;;7.67;5.20;;;;;;;23.67;37.30;98171.78;8315527;28;20231;-78
2022/09/01 18:51:03;;;;;;;7.83;3.20;;;;;;;23.49;36.73;98177.00;8315389;28;20238;-79
2022/09/01 18:55:13;;;;;;;6.83;3.57;;;;;;;23.40;37.51;98181.34;8315611;28;20240;-79
2022/09/01 18:59:29;;;;;;;5.97;2.67;;;;;;;23.34;37.38;98182.75;8314775;28;20240;-77
2022/09/01 19:03:44;;;;;;;5.30;2.23;;;;;;;23.22;37.10;98175.97;8314619;28;20237;-78
2022/09/01 19:07:53;;;;;;;13.13;2.80;;;;;;;23.07;37.36;98177.38;8313972;28;20228;-76
2022/09/01 19:12:17;;;;;;;4.73;2.00;;;;;;;22.88;37.24;98180.84;8314547;28;20234;-78
2022/09/01 19:16:29;;;;;;;3.03;1.70;;;;;;;22.82;37.51;98175.16;8315106;28;20413;-77
2022/09/01 19:20:41;;;;;;;4.27;2.00;;;;;;;22.75;37.28;98179.34;8314651;28;20392;-81
2022/09/01 19:24:47;;;;;;;4.50;2.00;;;;;;;22.64;36.92;98187.41;8314609;28;20240;-78
2022/09/01 19:28:52;;;;;;;4.80;1.70;;;;;;;22.57;36.80;98189.75;8314115;28;20233;-79